Alpine, KY

7:29 AM EDT on July 23, 2014 (GMT -0400)
KKYBURNS2 Elev 1200 ft | 36.90 °N, 84.56 °W | Change Station

Current weather conditions updated 6 seconds ago

Overcast
Overcast
72.1 °F
Feels Like 77 °F
N
0.0
Wind Variable Wind from North
Gusts 0.0 mph

Today is forecast to be Cooler than yesterday. Afternoon thunderstorms.

Today
High -- | Low -- °F
--% Chance of Precip.
Yesterday
High -- | Low -- °F
Precip. -- in
6:36 AM 8:52 PM
Waning Crescent, 11% visible
Pressure 30.11 in
Visibility 2.5 miles
Clouds Clear
Heat Index 77 °F
Dew Point 50 °F
Humidity 45%
Rainfall 0.00 in
Snow Depth Not available.
UV 0 out of 12
Pollen 4.10 out of 12
Air Quality Not available.
Flu Activity Not available.
METAR KSME 231115Z AUTO 00000KT 2 1/2SM BR CLR 21/21 A3011 RMK AO2

More Conditions Fewer Conditions

Pressure 30.11 in
Visibility 2.5 miles
Clouds Clear
Heat Index 77 °F
Dew Point 50 °F
Humidity 45%
Rainfall 0.00 in
Snow Depth Not available.
UV 0 out of 12
Pollen 4.10 out of 12
Air Quality Not available.
Flu Activity Not available.
METAR KSME 231115Z AUTO 00000KT 2 1/2SM BR CLR 21/21 A3011 RMK AO2

More Conditions Fewer Conditions

10-Day Weather Forecast

Almanac

Astronomy

Jul. 23, 2014 Rise Set
Actual Time 6:36 AM EDT 8:52 PM EDT
Civil Twilight 6:06 AM EDT 9:21 PM EDT
Nautical Twilight 5:30 AM EDT 9:57 PM EDT
Astronomical Twilight 4:51 AM EDT 10:37 PM EDT
Moon 3:54 AM EDT 6:21 PM EDT
Length of Visible Light 15h 14m
Length of Day
14h 16m
Tomorrow will be 1m 31s shorter.
Waning Crescent, 11% of the Moon is Illuminated
Today
Waning Crescent
Jul 26
New
Aug 3
First Quarter
Aug 10
Full
Aug 17
Last Quarter

Today's Extremes

State Highs State Lows

Community

WunderPhotos

Upload Photos

1,736,560 photos uploaded!

Nearby

Snow Depth

Station Depth Elevation
No new snow has been reported.

Earthquake Activity

City Distance Mag. Time & Date
No recent earthquake activity has been reported nearby.
Minimum magnitude displayed is 2.5.

Coastal Water Temperatures

Place Temperature
No Stations Reporting

Nearby Weather Stations

Station Location Temp. Heat Index Dew Point Humidity Wind Precip. Elev Updated Type
Burnside, KY 72.1 °F 77 °F 50 °F 45% North  at  0.0 mph 0.00 in / hr 1200 ft 7:29 AM EDT Rapid Fire
RAWS SOMERSET KY, Ferguson, KY 71 °F - 71 °F 99% North  at  0 mph 0.00 in / hr 920 ft 6:01 AM EDT MADIS
RMR - Somerset, Ferguson, KY 72.1 °F - 72 °F 100% NE  at  0.0 mph 0.00 in / hr 909 ft 7:28 AM EDT Normal
HALLS BACKYARD WEATHER, SCIENCE HILL, KY 73.2 °F 70 °F 71 °F 93% SSE  at  0.0 mph 0.00 in / hr 1076 ft 7:28 AM EDT Normal
Colonial Estates, Monticello, KY 71.2 °F - 71 °F 100% North  at  0.0 mph 0.00 in / hr 1004 ft 7:25 AM EDT Normal

Show More Stations Show Fewer Stations